createdAt,value
2019-02-02T00:00:42.072Z,99603.77
2019-02-02T00:03:10.941Z,99602.14
2019-02-02T00:05:39.467Z,99596.19
2019-02-02T00:08:08.431Z,99605.62
2019-02-02T00:10:36.898Z,99599.73
2019-02-02T00:13:05.529Z,99598.09
2019-02-02T00:15:34.112Z,99601.53
2019-02-02T00:18:02.582Z,99595.56
2019-02-02T00:20:31.020Z,99589.64
2019-02-02T00:22:59.526Z,99587.95
2019-02-02T00:25:27.994Z,99593.48
2019-02-02T00:27:56.472Z,99588.24
2019-02-02T00:30:25.011Z,99584.38
2019-02-02T00:32:53.502Z,99580.93
2019-02-02T00:35:21.975Z,99582.19
2019-02-02T00:37:51.459Z,99580.42
2019-02-02T00:40:20.598Z,99582.48
2019-02-02T00:42:49.133Z,99587.16
2019-02-02T00:45:22.394Z,99578.53
2019-02-02T00:47:50.986Z,99577.20
2019-02-02T00:50:20.094Z,99577.55
2019-02-02T00:52:48.596Z,99570.74
2019-02-02T00:55:18.590Z,99570.72
2019-02-02T00:57:53.380Z,99574.97
2019-02-02T01:00:23.459Z,99580.11
2019-02-02T01:02:51.991Z,99579.25
2019-02-02T01:05:24.434Z,99580.11
2019-02-02T01:07:54.175Z,99576.27
2019-02-02T01:10:39.736Z,99579.69
2019-02-02T01:13:08.337Z,99580.53
2019-02-02T01:15:36.801Z,99581.30
2019-02-02T01:18:05.826Z,99578.24
2019-02-02T01:20:34.401Z,99577.73
2019-02-02T01:23:02.863Z,99578.03
2019-02-02T01:25:31.393Z,99580.59
2019-02-02T01:28:05.396Z,99582.77
2019-02-02T01:30:30.123Z,99580.20
2019-02-02T01:32:58.573Z,99584.04
2019-02-02T01:35:27.186Z,99590.02
2019-02-02T01:37:55.650Z,99582.77
2019-02-02T01:40:26.372Z,99584.06
2019-02-02T01:42:55.316Z,99586.62
2019-02-02T01:45:26.022Z,99583.20
2019-02-02T01:47:55.148Z,99575.53
2019-02-02T01:50:27.543Z,99573.81
2019-02-02T01:52:56.075Z,99572.53
2019-02-02T01:55:24.608Z,99562.69
2019-02-02T01:57:53.442Z,99564.80
2019-02-02T02:00:24.346Z,99555.00
2019-02-02T02:02:52.882Z,99544.30
2019-02-02T02:05:21.429Z,99543.94
2019-02-02T02:07:49.968Z,99542.72
2019-02-02T02:10:19.678Z,99536.77
2019-02-02T02:12:48.258Z,99534.28
2019-02-02T02:15:18.364Z,99534.36
2019-02-02T02:17:46.903Z,99533.14
2019-02-02T02:20:17.333Z,99525.05
2019-02-02T02:22:46.443Z,99526.75
2019-02-02T02:25:19.562Z,99535.70
2019-02-02T02:27:48.193Z,99544.23
2019-02-02T02:30:19.271Z,99547.14
2019-02-02T02:32:47.794Z,99550.63
2019-02-02T02:35:16.427Z,99548.92
2019-02-02T02:37:45.127Z,99548.15
2019-02-02T02:40:21.863Z,99541.84
2019-02-02T02:42:51.965Z,99542.32
2019-02-02T02:45:20.743Z,99551.77
2019-02-02T02:47:49.305Z,99549.66
2019-02-02T02:50:19.719Z,99552.69
2019-02-02T02:52:48.190Z,99547.16
2019-02-02T02:55:18.188Z,99538.15
2019-02-02T02:57:47.188Z,99528.28
2019-02-02T03:00:18.197Z,99533.78
2019-02-02T03:02:46.769Z,99537.13
2019-02-02T03:05:17.762Z,99541.73
2019-02-02T03:07:47.041Z,99530.59
2019-02-02T03:10:18.347Z,99525.39
2019-02-02T03:12:46.958Z,99516.32
2019-02-02T03:15:17.166Z,99512.41
2019-02-02T03:17:46.087Z,99502.95
2019-02-02T03:20:15.897Z,99504.95
2019-02-02T03:22:44.732Z,99497.61
2019-02-02T03:25:18.849Z,99508.61
2019-02-02T03:27:47.315Z,99520.53
2019-02-02T03:30:18.278Z,99525.58
2019-02-02T03:32:46.762Z,99517.91
2019-02-02T03:35:17.860Z,99526.86
2019-02-02T03:37:46.397Z,99538.86
2019-02-02T03:40:17.040Z,99540.14
2019-02-02T03:42:45.590Z,99539.78
2019-02-02T03:45:16.763Z,99541.06
2019-02-02T03:47:45.275Z,99538.06
2019-02-02T03:50:14.146Z,99540.97
2019-02-02T03:52:42.595Z,99551.61
2019-02-02T03:55:13.527Z,99541.74
2019-02-02T03:57:42.083Z,99549.35
2019-02-02T04:00:16.023Z,99559.16
2019-02-02T04:02:44.618Z,99554.02
2019-02-02T04:05:15.732Z,99552.27
2019-02-02T04:07:44.197Z,99553.52
2019-02-02T04:10:14.162Z,99556.42
2019-02-02T04:12:42.637Z,99549.95
2019-02-02T04:15:13.872Z,99552.86
2019-02-02T04:17:42.341Z,99545.98
2019-02-02T04:20:21.874Z,99551.93
2019-02-02T04:22:50.731Z,99547.66
2019-02-02T04:25:21.807Z,99555.31
2019-02-02T04:27:50.343Z,99562.98
2019-02-02T04:30:21.548Z,99572.81
2019-02-02T04:32:50.012Z,99566.08
2019-02-02T04:35:18.549Z,99556.78
2019-02-02T04:37:47.069Z,99557.70
2019-02-02T04:40:16.059Z,99551.75
2019-02-02T04:42:44.664Z,99543.70
2019-02-02T04:45:15.679Z,99543.73
2019-02-02T04:47:44.661Z,99544.21
2019-02-02T04:50:15.456Z,99548.84
2019-02-02T04:52:44.009Z,99557.34
2019-02-02T04:55:15.233Z,99561.59
2019-02-02T04:57:43.672Z,99553.87
2019-02-02T05:00:15.302Z,99551.73
2019-02-02T05:02:43.769Z,99549.56
2019-02-02T05:05:14.572Z,99547.48
2019-02-02T05:07:43.068Z,99550.03
2019-02-02T05:10:17.844Z,99548.81
2019-02-02T05:12:46.319Z,99539.45
2019-02-02T05:15:15.173Z,99540.31
2019-02-02T05:17:43.637Z,99528.47
2019-02-02T05:20:17.839Z,99525.94
2019-02-02T05:22:46.502Z,99530.60
2019-02-02T05:25:15.027Z,99525.55
2019-02-02T05:27:43.551Z,99528.48
2019-02-02T05:30:23.792Z,99539.61
2019-02-02T05:32:52.269Z,99535.27
2019-02-02T05:35:20.791Z,99530.01
2019-02-02T05:37:49.291Z,99529.09
2019-02-02T05:40:19.801Z,99518.78
2019-02-02T05:42:48.398Z,99509.77
2019-02-02T05:45:18.832Z,99508.50
2019-02-02T05:47:47.472Z,99505.02
2019-02-02T05:50:18.414Z,99501.94
2019-02-02T05:52:46.973Z,99493.79
2019-02-02T05:55:17.382Z,99488.15
2019-02-02T05:57:45.918Z,99482.56
2019-02-02T06:00:18.880Z,99477.42
2019-02-02T06:02:47.408Z,99482.41
2019-02-02T06:05:15.871Z,99478.13
2019-02-02T06:07:44.388Z,99488.77
2019-02-02T06:10:15.762Z,99493.81
2019-02-02T06:12:44.282Z,99504.89
2019-02-02T06:15:13.547Z,99501.12
2019-02-02T06:17:42.093Z,99510.12
2019-02-02T06:20:18.052Z,99506.73
2019-02-02T06:22:46.523Z,99518.68
2019-02-02T06:25:15.840Z,99520.44
2019-02-02T06:27:44.483Z,99522.98
2019-02-02T06:30:21.237Z,99530.68
2019-02-02T06:32:49.707Z,99532.02
2019-02-02T06:35:18.913Z,99541.41
2019-02-02T06:37:47.432Z,99552.55
2019-02-02T06:40:18.539Z,99548.30
2019-02-02T06:42:47.078Z,99550.86
2019-02-02T06:45:24.685Z,99548.27
2019-02-02T06:47:53.283Z,99554.66
2019-02-02T06:50:21.972Z,99546.58
2019-02-02T06:52:51.593Z,99538.91
2019-02-02T06:55:20.171Z,99530.41
2019-02-02T06:57:48.605Z,99529.64
2019-02-02T07:00:22.076Z,99528.37
2019-02-02T07:02:50.647Z,99521.18
2019-02-02T07:05:19.133Z,99521.20
2019-02-02T07:07:47.636Z,99521.20
2019-02-02T07:10:18.931Z,99522.55
2019-02-02T07:12:47.394Z,99520.50
2019-02-02T07:15:18.055Z,99514.62
2019-02-02T07:17:46.511Z,99515.13
2019-02-02T07:20:15.445Z,99516.88
2019-02-02T07:22:44.012Z,99516.10
2019-02-02T07:25:12.565Z,99507.25
2019-02-02T07:27:41.025Z,99515.83
2019-02-02T07:30:12.787Z,99521.45
2019-02-02T07:32:41.321Z,99520.61
2019-02-02T07:35:11.432Z,99516.92
2019-02-02T07:37:40.004Z,99507.65
2019-02-02T07:40:11.180Z,99504.82
2019-02-02T07:42:39.648Z,99503.19
2019-02-02T07:45:11.550Z,99496.07
2019-02-02T07:47:40.067Z,99496.93
2019-02-02T07:50:11.777Z,99502.48
2019-02-02T07:52:40.288Z,99508.88
2019-02-02T07:55:11.522Z,99504.60
2019-02-02T07:57:39.982Z,99511.35
2019-02-02T08:00:40.468Z,99529.25
2019-02-02T08:03:03.181Z,99535.70
2019-02-02T08:05:31.721Z,99541.67
2019-02-02T08:08:00.278Z,99547.64
2019-02-02T08:10:28.725Z,99558.29
2019-02-02T08:12:57.199Z,99553.63
2019-02-02T08:15:33.401Z,99550.20
2019-02-02T08:18:01.873Z,99557.43
2019-02-02T08:20:30.327Z,99560.84
2019-02-02T08:22:58.816Z,99572.80
2019-02-02T08:25:27.264Z,99578.80
2019-02-02T08:27:55.968Z,99570.30
2019-02-02T08:30:35.414Z,99568.61
2019-02-02T08:33:02.550Z,99571.64
2019-02-02T08:35:30.999Z,99574.22
2019-02-02T08:37:59.565Z,99587.06
2019-02-02T08:40:28.025Z,99588.43
2019-02-02T08:42:56.498Z,99593.98
2019-02-02T08:45:24.997Z,99603.44
2019-02-02T08:47:53.458Z,99603.50
2019-02-02T08:50:25.071Z,99595.89
2019-02-02T08:52:53.593Z,99591.70
2019-02-02T08:55:22.167Z,99574.30
2019-02-02T08:57:50.816Z,99561.12
2019-02-02T09:00:22.306Z,99560.81
2019-02-02T09:02:51.116Z,99562.53
2019-02-02T09:05:21.522Z,99564.31
2019-02-02T09:07:50.166Z,99570.80
2019-02-02T09:10:24.031Z,99569.21
2019-02-02T09:12:52.506Z,99570.52
2019-02-02T09:15:21.151Z,99570.12
2019-02-02T09:17:49.619Z,99572.72
2019-02-02T09:20:18.083Z,99582.17
2019-02-02T09:22:47.125Z,99581.00
2019-02-02T09:25:19.348Z,99587.91
2019-02-02T09:27:47.888Z,99584.95
2019-02-02T09:30:22.141Z,99585.06
2019-02-02T09:32:50.608Z,99582.16
2019-02-02T09:35:19.132Z,99585.67
2019-02-02T09:37:47.669Z,99591.70
2019-02-02T09:40:18.254Z,99602.86
2019-02-02T09:42:47.102Z,99614.09
2019-02-02T09:45:17.540Z,99609.97
2019-02-02T09:47:46.198Z,99610.53
2019-02-02T09:50:19.946Z,99607.99
2019-02-02T09:52:48.428Z,99606.33
2019-02-02T09:55:20.399Z,99608.88
2019-02-02T09:57:49.414Z,99613.66
2019-02-02T10:00:23.337Z,99604.84
2019-02-02T10:02:51.808Z,99601.08
2019-02-02T10:05:20.489Z,99592.05
2019-02-02T10:07:49.172Z,99601.56
2019-02-02T10:10:22.571Z,99602.43
2019-02-02T10:12:51.077Z,99617.43
2019-02-02T10:15:19.901Z,99610.17
2019-02-02T10:17:49.857Z,99605.89
2019-02-02T10:20:21.471Z,99613.17
2019-02-02T10:22:49.948Z,99614.09
2019-02-02T10:25:24.389Z,99596.63
2019-02-02T10:27:53.001Z,99591.95
2019-02-02T10:30:33.268Z,99578.80
2019-02-02T10:33:02.027Z,99573.81
2019-02-02T10:35:30.484Z,99564.84
2019-02-02T10:37:58.958Z,99572.09
2019-02-02T10:40:29.880Z,99571.12
2019-02-02T10:42:57.701Z,99574.16
2019-02-02T10:45:26.329Z,99575.44
2019-02-02T10:47:54.841Z,99575.44
2019-02-02T10:50:27.189Z,99566.29
2019-02-02T10:52:55.645Z,99573.19
2019-02-02T10:55:26.854Z,99567.20
2019-02-02T10:57:55.304Z,99556.45
2019-02-02T11:00:26.821Z,99556.45
2019-02-02T11:02:55.382Z,99556.02
2019-02-02T11:05:23.955Z,99557.30
2019-02-02T11:07:54.512Z,99538.89
2019-02-02T11:10:24.700Z,99552.50
2019-02-02T11:12:53.920Z,99551.62
2019-02-02T11:15:23.565Z,99551.62
2019-02-02T11:17:52.182Z,99559.80
2019-02-02T11:20:31.481Z,99543.02
2019-02-02T11:23:00.353Z,99560.96
2019-02-02T11:25:29.002Z,99565.28
2019-02-02T11:27:57.467Z,99567.36
2019-02-02T11:30:26.892Z,99571.20
2019-02-02T11:32:55.397Z,99571.20
2019-02-02T11:35:23.876Z,99565.22
2019-02-02T11:37:52.378Z,99557.96
2019-02-02T11:40:26.448Z,99561.38
2019-02-02T11:42:55.310Z,99555.33
2019-02-02T11:45:23.876Z,99555.33
2019-02-02T11:47:52.439Z,99561.33
2019-02-02T11:50:21.844Z,99566.06
2019-02-02T11:52:50.415Z,99566.01
2019-02-02T11:55:21.271Z,99569.43
2019-02-02T11:57:50.183Z,99564.67
2019-02-02T12:00:26.875Z,99575.81
2019-02-02T12:02:55.483Z,99581.80
2019-02-02T12:05:24.004Z,99586.91
2019-02-02T12:07:52.499Z,99588.19
2019-02-02T12:10:26.302Z,99588.19
2019-02-02T12:12:54.768Z,99575.75
2019-02-02T12:15:23.422Z,99566.24
2019-02-02T12:17:51.880Z,99562.52
2019-02-02T12:20:21.972Z,99562.52
2019-02-02T12:22:50.557Z,99551.28
2019-02-02T12:25:19.005Z,99552.16
2019-02-02T12:27:47.533Z,99553.44
2019-02-02T12:30:28.140Z,99562.88
2019-02-02T12:32:56.599Z,99562.88
2019-02-02T12:35:26.813Z,99554.36
2019-02-02T12:37:55.452Z,99543.67
2019-02-02T12:40:26.062Z,99550.99
2019-02-02T12:42:54.559Z,99546.73
2019-02-02T12:45:28.625Z,99551.87
2019-02-02T12:47:57.097Z,99548.45
2019-02-02T12:50:25.562Z,99545.11
2019-02-02T12:52:54.067Z,99545.11
2019-02-02T12:55:22.612Z,99552.84
2019-02-02T12:57:51.078Z,99563.81
2019-02-02T13:00:22.398Z,99563.81
2019-02-02T13:02:50.862Z,99560.31
2019-02-02T13:05:21.844Z,99579.94
2019-02-02T13:07:50.431Z,99588.01
2019-02-02T13:10:29.548Z,99589.70
2019-02-02T13:12:58.105Z,99582.86
2019-02-02T13:15:26.635Z,99587.13
2019-02-02T13:17:55.171Z,99587.48
2019-02-02T13:20:23.682Z,99590.91
2019-02-02T13:22:52.174Z,99591.34
2019-02-02T13:25:26.162Z,99586.65
2019-02-02T13:27:54.739Z,99586.65
2019-02-02T13:30:28.679Z,99585.34
2019-02-02T13:32:57.472Z,99597.25
2019-02-02T13:35:27.048Z,99583.88
2019-02-02T13:37:55.594Z,99583.88
2019-02-02T13:40:25.020Z,99579.25
2019-02-02T13:42:53.653Z,99579.31
2019-02-02T13:45:23.494Z,99581.09
2019-02-02T13:47:52.283Z,99578.61
2019-02-02T13:50:21.384Z,99589.34
2019-02-02T13:52:51.348Z,99596.60
2019-02-02T13:55:19.959Z,99605.14
2019-02-02T13:57:48.485Z,99606.84
2019-02-02T14:00:26.040Z,99609.45
2019-02-02T14:03:02.083Z,99604.70
2019-02-02T14:05:24.732Z,99604.84
2019-02-02T14:07:53.902Z,99606.98
2019-02-02T14:10:27.568Z,99612.95
2019-02-02T14:12:56.198Z,99614.66
2019-02-02T14:15:24.671Z,99612.05
2019-02-02T14:17:53.309Z,99615.50
2019-02-02T14:20:21.845Z,99624.46
2019-02-02T14:22:50.387Z,99622.27
2019-02-02T14:25:19.413Z,99622.13
2019-02-02T14:27:47.902Z,99627.61
2019-02-02T14:30:24.305Z,99637.84
2019-02-02T14:32:54.946Z,99632.65
2019-02-02T14:35:25.080Z,99642.97
2019-02-02T14:37:53.596Z,99649.34
2019-02-02T14:40:22.120Z,99654.85
2019-02-02T14:42:50.592Z,99659.09
2019-02-02T14:45:26.768Z,99659.09
2019-02-02T14:47:55.863Z,99654.25
2019-02-02T14:50:24.353Z,99658.11
2019-02-02T14:52:53.995Z,99664.42
2019-02-02T14:55:24.723Z,99666.93
2019-02-02T14:57:53.263Z,99663.42
2019-02-02T15:00:26.749Z,99654.88
2019-02-02T15:02:55.285Z,99645.45
2019-02-02T15:05:23.816Z,99645.45
2019-02-02T15:07:52.377Z,99649.65
2019-02-02T15:10:22.136Z,99650.48
2019-02-02T15:12:50.855Z,99652.13
2019-02-02T15:15:19.370Z,99651.63
2019-02-02T15:17:47.825Z,99648.92
2019-02-02T15:20:22.439Z,99655.38
2019-02-02T15:22:51.270Z,99659.16
2019-02-02T15:25:19.734Z,99671.06
2019-02-02T15:27:48.191Z,99673.12
2019-02-02T15:30:22.127Z,99672.61
2019-02-02T15:32:50.754Z,99672.49
2019-02-02T15:35:19.217Z,99674.13
2019-02-02T15:37:47.718Z,99675.38
2019-02-02T15:40:18.012Z,99675.73
2019-02-02T15:42:46.652Z,99674.02
2019-02-02T15:45:17.405Z,99674.79
2019-02-02T15:47:45.851Z,99681.19
2019-02-02T15:50:16.037Z,99678.12
2019-02-02T15:52:44.873Z,99683.68
2019-02-02T15:55:16.322Z,99681.48
2019-02-02T15:57:44.789Z,99689.57
2019-02-02T16:00:18.772Z,99695.04
2019-02-02T16:02:47.247Z,99696.73
2019-02-02T16:05:17.450Z,99701.41
2019-02-02T16:07:45.955Z,99698.79
2019-02-02T16:10:20.538Z,99709.02
2019-02-02T16:12:50.916Z,99706.02
2019-02-02T16:15:19.359Z,99706.02
2019-02-02T16:17:47.888Z,99704.32
2019-02-02T16:20:18.829Z,99700.06
2019-02-02T16:22:47.528Z,99700.84
2019-02-02T16:25:16.053Z,99708.06
2019-02-02T16:27:44.572Z,99702.89
2019-02-02T16:30:29.560Z,99708.45
2019-02-02T16:32:58.061Z,99709.28
2019-02-02T16:35:26.524Z,99711.77
2019-02-02T16:37:55.060Z,99714.34
2019-02-02T16:40:28.632Z,99724.98
2019-02-02T16:42:57.274Z,99728.37
2019-02-02T16:45:28.946Z,99734.77
2019-02-02T16:47:57.451Z,99739.81
2019-02-02T16:50:25.966Z,99747.48
2019-02-02T16:52:54.570Z,99753.44
2019-02-02T16:55:23.125Z,99755.52
2019-02-02T16:57:51.595Z,99757.66
2019-02-02T17:00:22.757Z,99759.83
2019-02-02T17:02:51.326Z,99761.91
2019-02-02T17:05:19.863Z,99767.02
2019-02-02T17:07:48.310Z,99775.11
2019-02-02T17:10:28.361Z,99773.83
2019-02-02T17:12:56.818Z,99778.08
2019-02-02T17:15:25.661Z,99780.16
2019-02-02T17:17:54.160Z,99781.05
2019-02-02T17:20:28.116Z,99780.16
2019-02-02T17:22:56.597Z,99786.17
2019-02-02T17:25:25.160Z,99790.80
2019-02-02T17:27:53.632Z,99792.08
2019-02-02T17:30:26.421Z,99796.78
2019-02-02T17:33:06.188Z,99800.17
2019-02-02T17:35:34.649Z,99801.89
2019-02-02T17:38:03.115Z,99813.37
2019-02-02T17:40:31.615Z,99815.52
2019-02-02T17:43:00.067Z,99817.20
2019-02-02T17:45:28.614Z,99815.09
2019-02-02T17:47:57.224Z,99821.97
2019-02-02T17:50:29.989Z,99828.36
2019-02-02T17:52:58.453Z,99830.09
2019-02-02T17:55:27.032Z,99833.09
2019-02-02T17:57:55.482Z,99834.78
2019-02-02T18:00:31.369Z,99849.37
2019-02-02T18:02:59.893Z,99843.39
2019-02-02T18:05:28.347Z,99849.84
2019-02-02T18:07:56.802Z,99853.20
2019-02-02T18:10:25.278Z,99857.45
2019-02-02T18:12:53.740Z,99862.98
2019-02-02T18:15:22.202Z,99865.06
2019-02-02T18:17:51.053Z,99862.47
2019-02-02T18:20:19.512Z,99865.44
2019-02-02T18:22:47.972Z,99871.84
2019-02-02T18:25:17.510Z,99875.19
2019-02-02T18:27:46.045Z,99878.61
2019-02-02T18:30:22.671Z,99882.92
2019-02-02T18:32:51.200Z,99883.44
2019-02-02T18:35:19.663Z,99886.10
2019-02-02T18:37:48.240Z,99887.83
2019-02-02T18:40:18.851Z,99887.09
2019-02-02T18:42:47.363Z,99886.69
2019-02-02T18:45:24.293Z,99889.24
2019-02-02T18:47:52.816Z,99890.45
2019-02-02T18:50:21.292Z,99890.45
2019-02-02T18:52:51.622Z,99890.80
2019-02-02T18:55:31.750Z,99893.70
2019-02-02T18:58:00.324Z,99887.28
2019-02-02T19:00:28.867Z,99900.41
2019-02-02T19:02:57.509Z,99902.97
2019-02-02T19:05:28.962Z,99903.08
2019-02-02T19:07:56.250Z,99903.55
2019-02-02T19:10:30.543Z,99904.35
2019-02-02T19:12:59.233Z,99906.11
2019-02-02T19:15:27.699Z,99909.02
2019-02-02T19:17:56.203Z,99908.61
2019-02-02T19:20:24.653Z,99906.88
2019-02-02T19:22:53.116Z,99917.48
2019-02-02T19:25:21.601Z,99919.18
2019-02-02T19:27:50.062Z,99922.56
2019-02-02T19:30:27.370Z,99931.52
2019-02-02T19:32:55.827Z,99933.20
2019-02-02T19:35:24.340Z,99935.28
2019-02-02T19:37:52.834Z,99949.77
2019-02-02T19:40:21.295Z,99951.45
2019-02-02T19:42:49.760Z,99964.17
2019-02-02T19:45:26.042Z,99974.41
2019-02-02T19:47:54.581Z,99977.44
2019-02-02T19:50:25.056Z,99982.14
2019-02-02T19:52:53.711Z,99984.29
2019-02-02T19:55:22.168Z,99988.98
2019-02-02T19:57:50.712Z,99993.31
2019-02-02T20:00:24.602Z,99988.58
2019-02-02T20:02:53.409Z,99993.34
2019-02-02T20:05:28.648Z,99992.93
2019-02-02T20:07:52.223Z,100004.51
2019-02-02T20:10:20.767Z,100000.67
2019-02-02T20:12:49.234Z,100007.14
2019-02-02T20:15:25.656Z,100008.86
2019-02-02T20:17:54.134Z,100008.94
2019-02-02T20:20:27.981Z,100013.16
2019-02-02T20:22:57.359Z,100011.08
2019-02-02T20:25:26.049Z,100013.12
2019-02-02T20:27:54.653Z,100023.38
2019-02-02T20:30:25.844Z,100026.77
2019-02-02T20:32:54.337Z,100028.05
2019-02-02T20:35:22.935Z,100034.86
2019-02-02T20:37:51.739Z,100039.97
2019-02-02T20:40:25.086Z,100038.69
2019-02-02T20:42:53.783Z,100054.83
2019-02-02T20:45:28.292Z,100058.22
2019-02-02T20:47:56.751Z,100065.89
2019-02-02T20:50:25.205Z,100068.03
2019-02-02T20:52:53.701Z,100073.15
2019-02-02T20:55:24.699Z,100080.41
2019-02-02T20:57:53.509Z,100084.24
2019-02-02T21:00:24.258Z,100088.56
2019-02-02T21:02:52.717Z,100092.41
2019-02-02T21:05:21.376Z,100099.66
2019-02-02T21:07:49.883Z,100113.39
2019-02-02T21:10:20.957Z,100123.20
2019-02-02T21:12:49.563Z,100124.97
2019-02-02T21:15:18.180Z,100133.97
2019-02-02T21:17:46.872Z,100144.20
2019-02-02T21:20:18.180Z,100169.84
2019-02-02T21:22:46.983Z,100182.68
2019-02-02T21:25:16.275Z,100195.09
2019-02-02T21:27:44.791Z,100196.00
2019-02-02T21:30:16.648Z,100202.02
2019-02-02T21:32:45.161Z,100204.20
2019-02-02T21:35:13.726Z,100218.75
2019-02-02T21:37:42.183Z,100224.73
2019-02-02T21:40:13.878Z,100225.16
2019-02-02T21:42:42.516Z,100243.52
2019-02-02T21:45:13.224Z,100248.63
2019-02-02T21:47:42.034Z,100257.25
2019-02-02T21:50:14.065Z,100259.81
2019-02-02T21:52:42.591Z,100262.37
2019-02-02T21:55:17.204Z,100266.20
2019-02-02T21:57:45.769Z,100270.45
2019-02-02T22:00:20.114Z,100279.45
2019-02-02T22:02:48.668Z,100281.63
2019-02-02T22:05:17.284Z,100288.41
2019-02-02T22:07:47.463Z,100298.30
2019-02-02T22:10:16.610Z,100298.72
2019-02-02T22:12:45.575Z,100293.60
2019-02-02T22:15:18.296Z,100295.75
2019-02-02T22:17:46.938Z,100293.67
2019-02-02T22:20:17.314Z,100297.52
2019-02-02T22:22:45.951Z,100297.52
2019-02-02T22:25:22.090Z,100303.50
2019-02-02T22:27:50.540Z,100311.22
2019-02-02T22:30:21.390Z,100309.94
2019-02-02T22:32:49.896Z,100311.70
2019-02-02T22:35:18.508Z,100315.13
2019-02-02T22:37:46.964Z,100324.95
2019-02-02T22:40:24.541Z,100329.20
2019-02-02T22:42:54.097Z,100329.20
2019-02-02T22:45:23.092Z,100339.44
2019-02-02T22:47:51.952Z,100345.84
2019-02-02T22:50:22.141Z,100343.20
2019-02-02T22:52:50.769Z,100342.82
2019-02-02T22:55:20.828Z,100349.55
2019-02-02T22:57:49.283Z,100354.19
2019-02-02T23:00:43.526Z,100369.53
2019-02-02T23:03:17.921Z,100368.67
2019-02-02T23:06:12.368Z,100374.20
2019-02-02T23:09:05.196Z,100382.70
2019-02-02T23:11:48.853Z,100382.70
2019-02-02T23:14:26.900Z,100384.23
2019-02-02T23:16:55.369Z,100390.63
2019-02-02T23:19:23.839Z,100397.44
2019-02-02T23:21:52.309Z,100397.84
2019-02-02T23:24:22.680Z,100401.69
2019-02-02T23:26:51.411Z,100401.27
2019-02-02T23:29:19.885Z,100402.14
2019-02-02T23:31:48.372Z,100414.47
2019-02-02T23:34:16.843Z,100411.84
2019-02-02T23:36:51.796Z,100416.55
2019-02-02T23:39:15.538Z,100422.94
2019-02-02T23:41:44.009Z,100428.95
2019-02-02T23:44:12.469Z,100432.38
2019-02-02T23:46:40.967Z,100437.55
2019-02-02T23:49:09.432Z,100458.92
2019-02-02T23:51:37.896Z,100464.91
2019-02-02T23:54:06.459Z,100471.30
2019-02-02T23:56:35.006Z,100472.58
2019-02-02T23:59:03.617Z,100472.58
